sensor_id;sensor_type;location;lat;lon;timestamp;P1;durP1;ratioP1;P2;durP2;ratioP2
11131;SDS011;5620;53.570;9.718;2023-06-19T00:02:25;4.78;;;3.63;;
11131;SDS011;5620;53.570;9.718;2023-06-19T00:04:52;3.10;;;2.83;;
11131;SDS011;5620;53.570;9.718;2023-06-19T00:07:18;6.65;;;3.13;;
11131;SDS011;5620;53.570;9.718;2023-06-19T00:09:44;3.00;;;2.80;;
11131;SDS011;5620;53.570;9.718;2023-06-19T00:12:12;3.42;;;3.00;;
11131;SDS011;5620;53.570;9.718;2023-06-19T00:14:39;7.73;;;3.40;;
11131;SDS011;5620;53.570;9.718;2023-06-19T00:17:06;4.10;;;3.70;;
11131;SDS011;5620;53.570;9.718;2023-06-19T00:19:37;3.50;;;2.65;;
11131;SDS011;5620;53.570;9.718;2023-06-19T00:22:04;3.88;;;3.22;;
11131;SDS011;5620;53.570;9.718;2023-06-19T00:24:30;7.90;;;3.30;;
11131;SDS011;5620;53.570;9.718;2023-06-19T00:26:55;5.78;;;3.13;;
11131;SDS011;5620;53.570;9.718;2023-06-19T00:29:23;7.70;;;3.67;;
11131;SDS011;5620;53.570;9.718;2023-06-19T00:31:52;4.20;;;3.10;;
11131;SDS011;5620;53.570;9.718;2023-06-19T00:34:20;4.63;;;2.95;;
11131;SDS011;5620;53.570;9.718;2023-06-19T00:36:45;3.97;;;2.95;;
11131;SDS011;5620;53.570;9.718;2023-06-19T00:39:12;4.00;;;3.53;;
11131;SDS011;5620;53.570;9.718;2023-06-19T00:41:39;5.82;;;3.35;;
11131;SDS011;5620;53.570;9.718;2023-06-19T00:44:05;3.40;;;3.17;;
11131;SDS011;5620;53.570;9.718;2023-06-19T00:46:32;9.43;;;3.22;;
11131;SDS011;5620;53.570;9.718;2023-06-19T00:48:58;3.43;;;3.17;;
11131;SDS011;5620;53.570;9.718;2023-06-19T00:51:27;3.70;;;3.33;;
11131;SDS011;5620;53.570;9.718;2023-06-19T00:53:54;3.38;;;3.17;;
11131;SDS011;5620;53.570;9.718;2023-06-19T00:56:20;4.53;;;3.10;;
11131;SDS011;5620;53.570;9.718;2023-06-19T00:58:47;2.78;;;2.58;;
11131;SDS011;5620;53.570;9.718;2023-06-19T01:01:13;4.00;;;3.70;;
11131;SDS011;5620;53.570;9.718;2023-06-19T01:03:40;4.20;;;3.03;;
11131;SDS011;5620;53.570;9.718;2023-06-19T01:06:15;4.00;;;3.28;;
11131;SDS011;5620;53.570;9.718;2023-06-19T01:08:49;3.53;;;3.22;;
11131;SDS011;5620;53.570;9.718;2023-06-19T01:11:23;3.88;;;3.35;;
11131;SDS011;5620;53.570;9.718;2023-06-19T01:14:06;3.83;;;3.45;;
11131;SDS011;5620;53.570;9.718;2023-06-19T01:16:37;7.37;;;4.83;;
11131;SDS011;5620;53.570;9.718;2023-06-19T01:19:04;13.40;;;8.60;;
11131;SDS011;5620;53.570;9.718;2023-06-19T01:21:33;5.13;;;4.00;;
11131;SDS011;5620;53.570;9.718;2023-06-19T01:24:02;4.50;;;4.10;;
11131;SDS011;5620;53.570;9.718;2023-06-19T01:26:29;4.80;;;3.90;;
11131;SDS011;5620;53.570;9.718;2023-06-19T01:28:56;5.53;;;3.17;;
11131;SDS011;5620;53.570;9.718;2023-06-19T01:31:25;4.32;;;3.22;;
11131;SDS011;5620;53.570;9.718;2023-06-19T01:33:58;5.53;;;3.25;;
11131;SDS011;5620;53.570;9.718;2023-06-19T01:36:25;4.28;;;3.88;;
11131;SDS011;5620;53.570;9.718;2023-06-19T01:38:51;3.65;;;3.35;;
11131;SDS011;5620;53.570;9.718;2023-06-19T01:41:23;3.73;;;3.43;;
11131;SDS011;5620;53.570;9.718;2023-06-19T01:43:50;4.03;;;3.63;;
11131;SDS011;5620;53.570;9.718;2023-06-19T01:46:19;4.03;;;3.72;;
11131;SDS011;5620;53.570;9.718;2023-06-19T01:48:45;4.00;;;3.70;;
11131;SDS011;5620;53.570;9.718;2023-06-19T01:51:10;5.30;;;3.60;;
11131;SDS011;5620;53.570;9.718;2023-06-19T01:53:39;4.15;;;3.47;;
11131;SDS011;5620;53.570;9.718;2023-06-19T01:56:06;8.93;;;3.90;;
11131;SDS011;5620;53.570;9.718;2023-06-19T01:58:33;3.60;;;3.30;;
11131;SDS011;5620;53.570;9.718;2023-06-19T02:00:59;4.07;;;3.67;;
11131;SDS011;5620;53.570;9.718;2023-06-19T02:03:26;4.63;;;3.77;;
11131;SDS011;5620;53.570;9.718;2023-06-19T02:05:51;6.72;;;3.38;;
11131;SDS011;5620;53.570;9.718;2023-06-19T02:08:18;4.47;;;3.80;;
11131;SDS011;5620;53.570;9.718;2023-06-19T02:10:44;4.03;;;3.63;;
11131;SDS011;5620;53.570;9.718;2023-06-19T02:13:10;4.07;;;3.80;;
11131;SDS011;5620;53.570;9.718;2023-06-19T02:15:37;5.60;;;3.75;;
11131;SDS011;5620;53.570;9.718;2023-06-19T02:18:04;4.38;;;4.07;;
11131;SDS011;5620;53.570;9.718;2023-06-19T02:20:32;6.50;;;3.33;;
11131;SDS011;5620;53.570;9.718;2023-06-19T02:23:01;5.53;;;4.07;;
11131;SDS011;5620;53.570;9.718;2023-06-19T02:25:31;4.17;;;3.87;;
11131;SDS011;5620;53.570;9.718;2023-06-19T02:27:57;4.47;;;4.05;;
11131;SDS011;5620;53.570;9.718;2023-06-19T02:30:22;4.87;;;4.20;;
11131;SDS011;5620;53.570;9.718;2023-06-19T02:32:49;4.03;;;3.72;;
11131;SDS011;5620;53.570;9.718;2023-06-19T02:35:15;4.22;;;3.85;;
11131;SDS011;5620;53.570;9.718;2023-06-19T02:37:41;5.00;;;4.70;;
11131;SDS011;5620;53.570;9.718;2023-06-19T02:40:08;5.68;;;4.75;;
11131;SDS011;5620;53.570;9.718;2023-06-19T02:42:34;28.27;;;18.02;;
11131;SDS011;5620;53.570;9.718;2023-06-19T02:45:02;4.70;;;4.25;;
11131;SDS011;5620;53.570;9.718;2023-06-19T02:47:30;5.90;;;4.65;;
11131;SDS011;5620;53.570;9.718;2023-06-19T02:50:00;5.13;;;4.63;;
11131;SDS011;5620;53.570;9.718;2023-06-19T02:52:26;4.80;;;4.13;;
11131;SDS011;5620;53.570;9.718;2023-06-19T02:54:52;4.65;;;4.25;;
11131;SDS011;5620;53.570;9.718;2023-06-19T02:57:21;4.93;;;4.53;;
11131;SDS011;5620;53.570;9.718;2023-06-19T02:59:47;6.85;;;4.80;;
11131;SDS011;5620;53.570;9.718;2023-06-19T03:02:13;7.60;;;4.00;;
11131;SDS011;5620;53.570;9.718;2023-06-19T03:04:39;4.05;;;3.75;;
11131;SDS011;5620;53.570;9.718;2023-06-19T03:07:05;4.43;;;4.13;;
11131;SDS011;5620;53.570;9.718;2023-06-19T03:09:33;7.45;;;4.38;;
11131;SDS011;5620;53.570;9.718;2023-06-19T03:12:00;5.32;;;4.82;;
11131;SDS011;5620;53.570;9.718;2023-06-19T03:14:27;5.63;;;4.97;;
11131;SDS011;5620;53.570;9.718;2023-06-19T03:16:54;6.90;;;6.20;;
11131;SDS011;5620;53.570;9.718;2023-06-19T03:19:21;6.13;;;5.53;;
11131;SDS011;5620;53.570;9.718;2023-06-19T03:21:50;5.68;;;5.13;;
11131;SDS011;5620;53.570;9.718;2023-06-19T03:24:17;9.98;;;5.22;;
11131;SDS011;5620;53.570;9.718;2023-06-19T03:26:45;5.23;;;4.73;;
11131;SDS011;5620;53.570;9.718;2023-06-19T03:29:11;4.65;;;4.20;;
11131;SDS011;5620;53.570;9.718;2023-06-19T03:31:37;5.05;;;4.60;;
11131;SDS011;5620;53.570;9.718;2023-06-19T03:34:03;7.87;;;5.00;;
11131;SDS011;5620;53.570;9.718;2023-06-19T03:36:29;5.23;;;4.83;;
11131;SDS011;5620;53.570;9.718;2023-06-19T03:38:55;4.55;;;4.15;;
11131;SDS011;5620;53.570;9.718;2023-06-19T03:41:22;5.17;;;4.77;;
11131;SDS011;5620;53.570;9.718;2023-06-19T03:43:49;5.95;;;5.43;;
11131;SDS011;5620;53.570;9.718;2023-06-19T03:46:16;15.25;;;7.82;;
11131;SDS011;5620;53.570;9.718;2023-06-19T03:48:41;9.95;;;5.95;;
11131;SDS011;5620;53.570;9.718;2023-06-19T03:51:08;6.80;;;4.57;;
11131;SDS011;5620;53.570;9.718;2023-06-19T03:53:35;7.32;;;5.45;;
11131;SDS011;5620;53.570;9.718;2023-06-19T03:56:01;6.43;;;5.75;;
11131;SDS011;5620;53.570;9.718;2023-06-19T03:58:27;7.67;;;6.90;;
11131;SDS011;5620;53.570;9.718;2023-06-19T04:00:53;8.23;;;6.70;;
11131;SDS011;5620;53.570;9.718;2023-06-19T04:03:19;7.23;;;6.53;;
11131;SDS011;5620;53.570;9.718;2023-06-19T04:05:46;5.60;;;4.90;;
11131;SDS011;5620;53.570;9.718;2023-06-19T04:08:13;5.60;;;5.13;;
11131;SDS011;5620;53.570;9.718;2023-06-19T04:10:40;6.35;;;4.70;;
11131;SDS011;5620;53.570;9.718;2023-06-19T04:13:06;6.05;;;5.03;;
11131;SDS011;5620;53.570;9.718;2023-06-19T04:15:33;5.17;;;4.77;;
11131;SDS011;5620;53.570;9.718;2023-06-19T04:18:02;4.57;;;4.28;;
11131;SDS011;5620;53.570;9.718;2023-06-19T04:20:28;8.27;;;7.47;;
11131;SDS011;5620;53.570;9.718;2023-06-19T04:22:55;6.00;;;5.50;;
11131;SDS011;5620;53.570;9.718;2023-06-19T04:25:22;8.13;;;5.18;;
11131;SDS011;5620;53.570;9.718;2023-06-19T04:27:50;4.95;;;4.55;;
11131;SDS011;5620;53.570;9.718;2023-06-19T04:30:17;5.63;;;5.20;;
11131;SDS011;5620;53.570;9.718;2023-06-19T04:32:43;6.38;;;5.82;;
11131;SDS011;5620;53.570;9.718;2023-06-19T04:35:09;6.27;;;5.57;;
11131;SDS011;5620;53.570;9.718;2023-06-19T04:37:37;6.85;;;5.22;;
11131;SDS011;5620;53.570;9.718;2023-06-19T04:40:02;5.28;;;4.88;;
11131;SDS011;5620;53.570;9.718;2023-06-19T04:42:28;5.90;;;5.40;;
11131;SDS011;5620;53.570;9.718;2023-06-19T04:44:56;6.23;;;5.37;;
11131;SDS011;5620;53.570;9.718;2023-06-19T04:47:22;5.93;;;5.13;;
11131;SDS011;5620;53.570;9.718;2023-06-19T04:49:48;13.02;;;7.07;;
11131;SDS011;5620;53.570;9.718;2023-06-19T04:52:15;10.00;;;4.97;;
11131;SDS011;5620;53.570;9.718;2023-06-19T04:54:41;7.78;;;5.63;;
11131;SDS011;5620;53.570;9.718;2023-06-19T04:57:07;9.15;;;5.43;;
11131;SDS011;5620;53.570;9.718;2023-06-19T04:59:34;15.53;;;6.13;;
11131;SDS011;5620;53.570;9.718;2023-06-19T05:02:00;10.38;;;8.52;;
11131;SDS011;5620;53.570;9.718;2023-06-19T05:04:27;7.38;;;6.35;;
11131;SDS011;5620;53.570;9.718;2023-06-19T05:06:52;5.67;;;5.27;;
11131;SDS011;5620;53.570;9.718;2023-06-19T05:09:18;5.28;;;4.78;;
11131;SDS011;5620;53.570;9.718;2023-06-19T05:11:45;13.20;;;5.50;;
11131;SDS011;5620;53.570;9.718;2023-06-19T05:14:10;5.97;;;5.50;;
11131;SDS011;5620;53.570;9.718;2023-06-19T05:16:38;5.93;;;5.33;;
11131;SDS011;5620;53.570;9.718;2023-06-19T05:19:04;5.85;;;5.35;;
11131;SDS011;5620;53.570;9.718;2023-06-19T05:21:30;8.38;;;5.80;;
11131;SDS011;5620;53.570;9.718;2023-06-19T05:23:56;45.63;;;27.60;;
11131;SDS011;5620;53.570;9.718;2023-06-19T05:26:22;58.50;;;31.42;;
11131;SDS011;5620;53.570;9.718;2023-06-19T05:28:48;6.93;;;6.33;;
11131;SDS011;5620;53.570;9.718;2023-06-19T05:31:16;6.22;;;5.45;;
11131;SDS011;5620;53.570;9.718;2023-06-19T05:33:43;8.30;;;5.55;;
11131;SDS011;5620;53.570;9.718;2023-06-19T05:36:09;6.47;;;4.82;;
11131;SDS011;5620;53.570;9.718;2023-06-19T05:38:35;5.70;;;5.20;;
11131;SDS011;5620;53.570;9.718;2023-06-19T05:41:02;8.30;;;5.57;;
11131;SDS011;5620;53.570;9.718;2023-06-19T05:43:28;8.15;;;5.30;;
11131;SDS011;5620;53.570;9.718;2023-06-19T05:45:53;5.70;;;5.20;;
11131;SDS011;5620;53.570;9.718;2023-06-19T05:48:19;12.20;;;7.63;;
11131;SDS011;5620;53.570;9.718;2023-06-19T05:50:45;5.67;;;5.30;;
11131;SDS011;5620;53.570;9.718;2023-06-19T05:53:12;6.07;;;5.57;;
11131;SDS011;5620;53.570;9.718;2023-06-19T05:55:37;6.97;;;6.40;;
11131;SDS011;5620;53.570;9.718;2023-06-19T05:58:05;21.87;;;17.47;;
11131;SDS011;5620;53.570;9.718;2023-06-19T06:00:32;11.57;;;6.78;;
11131;SDS011;5620;53.570;9.718;2023-06-19T06:02:59;5.63;;;5.22;;
11131;SDS011;5620;53.570;9.718;2023-06-19T06:05:26;8.33;;;5.70;;
11131;SDS011;5620;53.570;9.718;2023-06-19T06:07:53;6.38;;;5.70;;
11131;SDS011;5620;53.570;9.718;2023-06-19T06:10:20;5.82;;;5.22;;
11131;SDS011;5620;53.570;9.718;2023-06-19T06:12:48;6.30;;;5.65;;
11131;SDS011;5620;53.570;9.718;2023-06-19T06:15:14;43.78;;;7.80;;
11131;SDS011;5620;53.570;9.718;2023-06-19T06:17:41;10.50;;;5.63;;
11131;SDS011;5620;53.570;9.718;2023-06-19T06:20:06;6.43;;;5.93;;
11131;SDS011;5620;53.570;9.718;2023-06-19T06:22:34;7.80;;;5.85;;
11131;SDS011;5620;53.570;9.718;2023-06-19T06:25:00;7.23;;;6.60;;
11131;SDS011;5620;53.570;9.718;2023-06-19T06:27:28;7.35;;;6.57;;
11131;SDS011;5620;53.570;9.718;2023-06-19T06:29:54;6.90;;;5.70;;
11131;SDS011;5620;53.570;9.718;2023-06-19T06:32:20;5.70;;;5.32;;
11131;SDS011;5620;53.570;9.718;2023-06-19T06:34:46;6.57;;;5.17;;
11131;SDS011;5620;53.570;9.718;2023-06-19T06:37:16;5.60;;;5.20;;
11131;SDS011;5620;53.570;9.718;2023-06-19T06:39:43;5.72;;;5.40;;
11131;SDS011;5620;53.570;9.718;2023-06-19T06:42:08;11.77;;;8.67;;
11131;SDS011;5620;53.570;9.718;2023-06-19T06:44:34;7.15;;;6.40;;
11131;SDS011;5620;53.570;9.718;2023-06-19T06:47:01;6.43;;;6.03;;
11131;SDS011;5620;53.570;9.718;2023-06-19T06:49:29;8.13;;;4.95;;
11131;SDS011;5620;53.570;9.718;2023-06-19T06:51:55;5.80;;;5.20;;
11131;SDS011;5620;53.570;9.718;2023-06-19T06:54:21;5.80;;;5.30;;
11131;SDS011;5620;53.570;9.718;2023-06-19T06:56:46;6.13;;;5.70;;
11131;SDS011;5620;53.570;9.718;2023-06-19T06:59:12;6.73;;;5.40;;
11131;SDS011;5620;53.570;9.718;2023-06-19T07:01:41;6.13;;;5.53;;
11131;SDS011;5620;53.570;9.718;2023-06-19T07:04:08;7.83;;;5.40;;
11131;SDS011;5620;53.570;9.718;2023-06-19T07:06:34;7.43;;;5.07;;
11131;SDS011;5620;53.570;9.718;2023-06-19T07:09:00;7.85;;;5.22;;
11131;SDS011;5620;53.570;9.718;2023-06-19T07:11:28;6.23;;;5.70;;
11131;SDS011;5620;53.570;9.718;2023-06-19T07:13:55;6.75;;;5.57;;
11131;SDS011;5620;53.570;9.718;2023-06-19T07:16:22;9.63;;;5.82;;
11131;SDS011;5620;53.570;9.718;2023-06-19T07:18:48;11.77;;;5.27;;
11131;SDS011;5620;53.570;9.718;2023-06-19T07:21:14;7.68;;;6.10;;
11131;SDS011;5620;53.570;9.718;2023-06-19T07:23:41;10.00;;;5.88;;
11131;SDS011;5620;53.570;9.718;2023-06-19T07:26:10;8.45;;;5.75;;
11131;SDS011;5620;53.570;9.718;2023-06-19T07:28:37;12.88;;;5.85;;
11131;SDS011;5620;53.570;9.718;2023-06-19T07:31:03;6.23;;;5.73;;
11131;SDS011;5620;53.570;9.718;2023-06-19T07:33:30;8.80;;;5.72;;
11131;SDS011;5620;53.570;9.718;2023-06-19T07:35:57;6.73;;;6.10;;
11131;SDS011;5620;53.570;9.718;2023-06-19T07:38:23;12.93;;;11.57;;
11131;SDS011;5620;53.570;9.718;2023-06-19T07:40:49;6.90;;;5.75;;
11131;SDS011;5620;53.570;9.718;2023-06-19T07:43:15;5.80;;;5.40;;
11131;SDS011;5620;53.570;9.718;2023-06-19T07:45:41;6.10;;;5.50;;
11131;SDS011;5620;53.570;9.718;2023-06-19T07:48:08;6.13;;;5.50;;
11131;SDS011;5620;53.570;9.718;2023-06-19T07:50:34;9.70;;;5.43;;
11131;SDS011;5620;53.570;9.718;2023-06-19T07:53:01;6.30;;;5.80;;
11131;SDS011;5620;53.570;9.718;2023-06-19T07:55:28;6.20;;;5.80;;
11131;SDS011;5620;53.570;9.718;2023-06-19T07:57:55;12.70;;;5.97;;
11131;SDS011;5620;53.570;9.718;2023-06-19T08:00:25;8.00;;;5.75;;
11131;SDS011;5620;53.570;9.718;2023-06-19T08:02:53;6.93;;;5.40;;
11131;SDS011;5620;53.570;9.718;2023-06-19T08:05:21;6.95;;;5.85;;
11131;SDS011;5620;53.570;9.718;2023-06-19T08:07:46;6.05;;;5.65;;
11131;SDS011;5620;53.570;9.718;2023-06-19T08:10:12;6.60;;;5.67;;
11131;SDS011;5620;53.570;9.718;2023-06-19T08:12:40;11.98;;;6.30;;
11131;SDS011;5620;53.570;9.718;2023-06-19T08:15:07;6.45;;;5.95;;
11131;SDS011;5620;53.570;9.718;2023-06-19T08:17:34;8.63;;;6.10;;
11131;SDS011;5620;53.570;9.718;2023-06-19T08:20:01;15.75;;;11.27;;
11131;SDS011;5620;53.570;9.718;2023-06-19T08:22:26;19.17;;;15.05;;
11131;SDS011;5620;53.570;9.718;2023-06-19T08:24:53;8.70;;;7.55;;
11131;SDS011;5620;53.570;9.718;2023-06-19T08:27:20;8.20;;;5.80;;
11131;SDS011;5620;53.570;9.718;2023-06-19T08:29:47;6.00;;;5.53;;
11131;SDS011;5620;53.570;9.718;2023-06-19T08:32:14;11.48;;;6.30;;
11131;SDS011;5620;53.570;9.718;2023-06-19T08:34:39;6.23;;;5.63;;
11131;SDS011;5620;53.570;9.718;2023-06-19T08:37:05;11.63;;;6.18;;
11131;SDS011;5620;53.570;9.718;2023-06-19T08:39:31;7.40;;;6.15;;
11131;SDS011;5620;53.570;9.718;2023-06-19T08:41:59;6.30;;;5.80;;
11131;SDS011;5620;53.570;9.718;2023-06-19T08:44:25;7.05;;;6.38;;
11131;SDS011;5620;53.570;9.718;2023-06-19T08:46:52;8.30;;;7.50;;
11131;SDS011;5620;53.570;9.718;2023-06-19T08:49:19;9.55;;;7.00;;
11131;SDS011;5620;53.570;9.718;2023-06-19T08:51:46;7.73;;;7.00;;
11131;SDS011;5620;53.570;9.718;2023-06-19T08:54:18;8.18;;;6.32;;
11131;SDS011;5620;53.570;9.718;2023-06-19T08:56:44;8.40;;;5.97;;
11131;SDS011;5620;53.570;9.718;2023-06-19T08:59:13;8.60;;;5.88;;
11131;SDS011;5620;53.570;9.718;2023-06-19T09:01:39;6.30;;;5.68;;
11131;SDS011;5620;53.570;9.718;2023-06-19T09:04:21;9.77;;;5.65;;
11131;SDS011;5620;53.570;9.718;2023-06-19T09:06:55;67.50;;;6.57;;
11131;SDS011;5620;53.570;9.718;2023-06-19T09:09:28;14.43;;;5.53;;
11131;SDS011;5620;53.570;9.718;2023-06-19T09:14:39;8.77;;;5.93;;
11131;SDS011;5620;53.570;9.718;2023-06-19T09:17:12;6.65;;;5.82;;
11131;SDS011;5620;53.570;9.718;2023-06-19T09:19:52;6.55;;;5.80;;
11131;SDS011;5620;53.570;9.718;2023-06-19T09:22:20;5.85;;;5.38;;
11131;SDS011;5620;53.570;9.718;2023-06-19T09:24:46;5.70;;;5.10;;
11131;SDS011;5620;53.570;9.718;2023-06-19T09:29:57;11.23;;;6.03;;
11131;SDS011;5620;53.570;9.718;2023-06-19T09:32:25;5.63;;;5.13;;
11131;SDS011;5620;53.570;9.718;2023-06-19T09:34:54;7.83;;;5.40;;
11131;SDS011;5620;53.570;9.718;2023-06-19T09:37:24;6.28;;;5.10;;
11131;SDS011;5620;53.570;9.718;2023-06-19T09:39:56;7.32;;;5.65;;
11131;SDS011;5620;53.570;9.718;2023-06-19T09:42:32;7.20;;;5.53;;
11131;SDS011;5620;53.570;9.718;2023-06-19T09:45:05;5.80;;;4.95;;
11131;SDS011;5620;53.570;9.718;2023-06-19T09:47:48;6.50;;;5.90;;
11131;SDS011;5620;53.570;9.718;2023-06-19T09:50:17;7.32;;;5.53;;
11131;SDS011;5620;53.570;9.718;2023-06-19T09:52:43;6.60;;;5.67;;
11131;SDS011;5620;53.570;9.718;2023-06-19T09:55:09;5.60;;;4.87;;
11131;SDS011;5620;53.570;9.718;2023-06-19T09:57:37;6.47;;;5.47;;
11131;SDS011;5620;53.570;9.718;2023-06-19T10:00:04;6.57;;;5.93;;
11131;SDS011;5620;53.570;9.718;2023-06-19T10:02:33;8.27;;;7.20;;
11131;SDS011;5620;53.570;9.718;2023-06-19T10:05:00;7.00;;;6.50;;
11131;SDS011;5620;53.570;9.718;2023-06-19T10:07:32;5.87;;;5.37;;
11131;SDS011;5620;53.570;9.718;2023-06-19T10:12:54;6.47;;;5.38;;
11131;SDS011;5620;53.570;9.718;2023-06-19T10:15:26;7.38;;;4.63;;
11131;SDS011;5620;53.570;9.718;2023-06-19T10:18:01;6.18;;;5.07;;
11131;SDS011;5620;53.570;9.718;2023-06-19T10:20:29;5.23;;;4.80;;
11131;SDS011;5620;53.570;9.718;2023-06-19T10:23:18;4.55;;;4.22;;
11131;SDS011;5620;53.570;9.718;2023-06-19T10:25:44;4.72;;;4.32;;
11131;SDS011;5620;53.570;9.718;2023-06-19T10:33:44;7.27;;;4.20;;
11131;SDS011;5620;53.570;9.718;2023-06-19T10:36:16;4.95;;;4.55;;
11131;SDS011;5620;53.570;9.718;2023-06-19T10:38:44;4.78;;;4.40;;
11131;SDS011;5620;53.570;9.718;2023-06-19T10:41:21;4.53;;;4.13;;
11131;SDS011;5620;53.570;9.718;2023-06-19T10:46:33;8.23;;;3.80;;
11131;SDS011;5620;53.570;9.718;2023-06-19T10:49:01;4.93;;;4.00;;
11131;SDS011;5620;53.570;9.718;2023-06-19T10:51:36;4.53;;;4.20;;
11131;SDS011;5620;53.570;9.718;2023-06-19T10:54:03;4.25;;;3.90;;
11131;SDS011;5620;53.570;9.718;2023-06-19T10:56:31;5.50;;;3.65;;
11131;SDS011;5620;53.570;9.718;2023-06-19T11:01:45;5.13;;;3.55;;
11131;SDS011;5620;53.570;9.718;2023-06-19T11:04:15;4.13;;;3.30;;
11131;SDS011;5620;53.570;9.718;2023-06-19T11:06:41;5.00;;;2.97;;
11131;SDS011;5620;53.570;9.718;2023-06-19T11:09:09;3.45;;;3.17;;
11131;SDS011;5620;53.570;9.718;2023-06-19T11:11:42;7.97;;;3.00;;
11131;SDS011;5620;53.570;9.718;2023-06-19T11:14:10;3.92;;;3.45;;
11131;SDS011;5620;53.570;9.718;2023-06-19T11:16:37;9.95;;;7.55;;
11131;SDS011;5620;53.570;9.718;2023-06-19T11:19:09;3.72;;;3.50;;
11131;SDS011;5620;53.570;9.718;2023-06-19T11:21:44;3.70;;;3.40;;
11131;SDS011;5620;53.570;9.718;2023-06-19T11:24:36;4.00;;;3.27;;
11131;SDS011;5620;53.570;9.718;2023-06-19T11:27:03;3.38;;;3.17;;
11131;SDS011;5620;53.570;9.718;2023-06-19T11:29:30;3.60;;;3.30;;
11131;SDS011;5620;53.570;9.718;2023-06-19T11:34:33;3.00;;;2.80;;
11131;SDS011;5620;53.570;9.718;2023-06-19T11:37:01;3.43;;;3.00;;
11131;SDS011;5620;53.570;9.718;2023-06-19T11:39:48;2.97;;;2.78;;
11131;SDS011;5620;53.570;9.718;2023-06-19T11:42:15;4.18;;;2.83;;
11131;SDS011;5620;53.570;9.718;2023-06-19T11:47:29;4.22;;;3.20;;
11131;SDS011;5620;53.570;9.718;2023-06-19T11:49:55;3.33;;;2.90;;
11131;SDS011;5620;53.570;9.718;2023-06-19T11:52:21;3.55;;;3.17;;
11131;SDS011;5620;53.570;9.718;2023-06-19T11:54:48;16.40;;;3.50;;
11131;SDS011;5620;53.570;9.718;2023-06-19T11:57:16;7.90;;;3.63;;
11131;SDS011;5620;53.570;9.718;2023-06-19T11:59:47;5.53;;;3.00;;
11131;SDS011;5620;53.570;9.718;2023-06-19T12:02:13;8.27;;;3.60;;
11131;SDS011;5620;53.570;9.718;2023-06-19T12:04:40;4.13;;;2.90;;
11131;SDS011;5620;53.570;9.718;2023-06-19T12:07:08;3.17;;;2.97;;
11131;SDS011;5620;53.570;9.718;2023-06-19T12:09:35;6.43;;;2.70;;
11131;SDS011;5620;53.570;9.718;2023-06-19T12:12:03;4.43;;;3.20;;
11131;SDS011;5620;53.570;9.718;2023-06-19T12:14:29;5.03;;;3.38;;
11131;SDS011;5620;53.570;9.718;2023-06-19T12:16:55;13.40;;;12.18;;
11131;SDS011;5620;53.570;9.718;2023-06-19T12:19:20;5.63;;;3.97;;
11131;SDS011;5620;53.570;9.718;2023-06-19T12:21:47;4.32;;;3.28;;
11131;SDS011;5620;53.570;9.718;2023-06-19T12:24:14;9.40;;;3.47;;
11131;SDS011;5620;53.570;9.718;2023-06-19T12:26:48;7.57;;;3.40;;
11131;SDS011;5620;53.570;9.718;2023-06-19T12:29:15;3.55;;;3.25;;
11131;SDS011;5620;53.570;9.718;2023-06-19T12:31:43;4.28;;;3.40;;
11131;SDS011;5620;53.570;9.718;2023-06-19T12:34:11;3.00;;;2.80;;
11131;SDS011;5620;53.570;9.718;2023-06-19T12:36:37;2.97;;;2.78;;
11131;SDS011;5620;53.570;9.718;2023-06-19T12:39:05;4.43;;;3.33;;
11131;SDS011;5620;53.570;9.718;2023-06-19T12:41:32;3.70;;;2.60;;
11131;SDS011;5620;53.570;9.718;2023-06-19T12:43:58;4.43;;;3.20;;
11131;SDS011;5620;53.570;9.718;2023-06-19T12:46:24;3.75;;;2.80;;
11131;SDS011;5620;53.570;9.718;2023-06-19T12:48:51;5.87;;;2.30;;
11131;SDS011;5620;53.570;9.718;2023-06-19T12:51:18;3.05;;;2.08;;
11131;SDS011;5620;53.570;9.718;2023-06-19T12:53:56;5.32;;;2.38;;
11131;SDS011;5620;53.570;9.718;2023-06-19T12:56:21;3.45;;;2.70;;
11131;SDS011;5620;53.570;9.718;2023-06-19T12:58:48;4.10;;;2.50;;
11131;SDS011;5620;53.570;9.718;2023-06-19T13:01:13;4.90;;;3.07;;
11131;SDS011;5620;53.570;9.718;2023-06-19T13:03:40;5.50;;;2.73;;
11131;SDS011;5620;53.570;9.718;2023-06-19T13:06:05;14.13;;;3.40;;
11131;SDS011;5620;53.570;9.718;2023-06-19T13:08:32;3.22;;;2.28;;
11131;SDS011;5620;53.570;9.718;2023-06-19T13:10:59;4.22;;;2.20;;
11131;SDS011;5620;53.570;9.718;2023-06-19T13:13:26;4.37;;;2.00;;
11131;SDS011;5620;53.570;9.718;2023-06-19T13:15:53;3.72;;;2.65;;
11131;SDS011;5620;53.570;9.718;2023-06-19T13:18:21;3.85;;;2.00;;
11131;SDS011;5620;53.570;9.718;2023-06-19T13:20:46;8.27;;;2.43;;
11131;SDS011;5620;53.570;9.718;2023-06-19T13:23:13;3.50;;;2.53;;
11131;SDS011;5620;53.570;9.718;2023-06-19T13:25:39;6.95;;;2.25;;
11131;SDS011;5620;53.570;9.718;2023-06-19T13:28:07;3.23;;;2.30;;
11131;SDS011;5620;53.570;9.718;2023-06-19T13:30:34;6.95;;;2.03;;
11131;SDS011;5620;53.570;9.718;2023-06-19T13:33:01;3.35;;;1.48;;
11131;SDS011;5620;53.570;9.718;2023-06-19T13:35:26;4.27;;;1.93;;
11131;SDS011;5620;53.570;9.718;2023-06-19T13:37:52;3.95;;;2.20;;
11131;SDS011;5620;53.570;9.718;2023-06-19T13:40:19;2.23;;;2.10;;
11131;SDS011;5620;53.570;9.718;2023-06-19T13:42:45;2.00;;;1.90;;
11131;SDS011;5620;53.570;9.718;2023-06-19T13:45:11;3.40;;;1.38;;
11131;SDS011;5620;53.570;9.718;2023-06-19T13:47:36;2.23;;;1.70;;
11131;SDS011;5620;53.570;9.718;2023-06-19T13:50:06;1.42;;;1.23;;
11131;SDS011;5620;53.570;9.718;2023-06-19T13:52:35;1.58;;;1.48;;
11131;SDS011;5620;53.570;9.718;2023-06-19T13:55:02;2.80;;;1.50;;
11131;SDS011;5620;53.570;9.718;2023-06-19T13:57:27;3.75;;;1.10;;
11131;SDS011;5620;53.570;9.718;2023-06-19T13:59:56;1.00;;;0.90;;
11131;SDS011;5620;53.570;9.718;2023-06-19T14:02:21;1.27;;;1.10;;
11131;SDS011;5620;53.570;9.718;2023-06-19T14:04:48;1.40;;;1.30;;
11131;SDS011;5620;53.570;9.718;2023-06-19T14:07:15;3.87;;;1.10;;
11131;SDS011;5620;53.570;9.718;2023-06-19T14:09:42;1.33;;;1.07;;
11131;SDS011;5620;53.570;9.718;2023-06-19T14:12:08;3.92;;;1.35;;
11131;SDS011;5620;53.570;9.718;2023-06-19T14:14:35;3.57;;;1.17;;
11131;SDS011;5620;53.570;9.718;2023-06-19T14:17:02;2.95;;;1.20;;
11131;SDS011;5620;53.570;9.718;2023-06-19T14:19:29;4.53;;;1.63;;
11131;SDS011;5620;53.570;9.718;2023-06-19T14:21:55;3.30;;;1.30;;
11131;SDS011;5620;53.570;9.718;2023-06-19T14:24:21;3.58;;;1.40;;
11131;SDS011;5620;53.570;9.718;2023-06-19T14:26:48;4.30;;;1.43;;
11131;SDS011;5620;53.570;9.718;2023-06-19T14:29:15;1.45;;;1.35;;
11131;SDS011;5620;53.570;9.718;2023-06-19T14:31:52;2.78;;;1.55;;
11131;SDS011;5620;53.570;9.718;2023-06-19T14:34:28;1.50;;;1.40;;
11131;SDS011;5620;53.570;9.718;2023-06-19T14:36:55;1.90;;;1.52;;
11131;SDS011;5620;53.570;9.718;2023-06-19T14:39:22;3.30;;;1.45;;
11131;SDS011;5620;53.570;9.718;2023-06-19T14:41:48;2.40;;;1.43;;
11131;SDS011;5620;53.570;9.718;2023-06-19T14:44:13;2.22;;;1.50;;
11131;SDS011;5620;53.570;9.718;2023-06-19T14:46:40;5.80;;;1.15;;
11131;SDS011;5620;53.570;9.718;2023-06-19T14:49:09;2.40;;;1.80;;
11131;SDS011;5620;53.570;9.718;2023-06-19T14:51:38;4.70;;;1.65;;
11131;SDS011;5620;53.570;9.718;2023-06-19T14:54:04;1.55;;;1.45;;
11131;SDS011;5620;53.570;9.718;2023-06-19T14:56:30;4.55;;;1.95;;
11131;SDS011;5620;53.570;9.718;2023-06-19T14:58:55;1.53;;;1.40;;
11131;SDS011;5620;53.570;9.718;2023-06-19T15:01:21;3.13;;;1.80;;
11131;SDS011;5620;53.570;9.718;2023-06-19T15:03:47;4.85;;;1.73;;
11131;SDS011;5620;53.570;9.718;2023-06-19T15:06:14;1.60;;;1.50;;
11131;SDS011;5620;53.570;9.718;2023-06-19T15:08:41;2.55;;;1.33;;
11131;SDS011;5620;53.570;9.718;2023-06-19T15:11:06;3.10;;;1.20;;
11131;SDS011;5620;53.570;9.718;2023-06-19T15:13:32;6.38;;;2.67;;
11131;SDS011;5620;53.570;9.718;2023-06-19T15:15:57;1.13;;;0.87;;
11131;SDS011;5620;53.570;9.718;2023-06-19T15:18:26;2.95;;;1.23;;
11131;SDS011;5620;53.570;9.718;2023-06-19T15:20:53;2.25;;;1.30;;
11131;SDS011;5620;53.570;9.718;2023-06-19T15:23:21;1.10;;;1.00;;
11131;SDS011;5620;53.570;9.718;2023-06-19T15:25:48;2.55;;;1.50;;
11131;SDS011;5620;53.570;9.718;2023-06-19T15:28:14;1.27;;;1.17;;